createdAt,value
2019-04-14T00:02:38.222Z,68.69
2019-04-14T00:05:10.392Z,69.11
2019-04-14T00:07:40.572Z,69.50
2019-04-14T00:10:11.546Z,69.78
2019-04-14T00:12:42.618Z,69.90
2019-04-14T00:15:25.718Z,70.12
2019-04-14T00:17:45.632Z,70.88
2019-04-14T00:20:16.407Z,71.37
2019-04-14T00:22:46.819Z,71.19
2019-04-14T00:25:17.410Z,71.04
2019-04-14T00:27:48.077Z,70.48
2019-04-14T00:30:18.875Z,70.73
2019-04-14T00:32:50.920Z,70.74
2019-04-14T00:35:23.090Z,70.48
2019-04-14T00:37:55.478Z,70.50
2019-04-14T00:40:34.674Z,71.26
2019-04-14T00:43:07.011Z,71.98
2019-04-14T00:45:46.469Z,72.11
2019-04-14T00:48:16.158Z,72.17
2019-04-14T00:50:43.476Z,72.25
2019-04-14T00:53:14.255Z,71.71
2019-04-14T00:55:44.353Z,71.27
2019-04-14T00:58:14.849Z,70.85
2019-04-14T01:00:45.124Z,70.84
2019-04-14T01:03:15.538Z,70.66
2019-04-14T01:05:45.939Z,70.54
2019-04-14T01:08:16.347Z,70.41
2019-04-14T01:10:46.024Z,70.34
2019-04-14T01:13:15.810Z,70.18
2019-04-14T01:15:56.816Z,70.00
2019-04-14T01:18:16.909Z,69.85
2019-04-14T01:20:47.096Z,69.78
2019-04-14T01:23:17.162Z,69.82
2019-04-14T01:25:47.702Z,69.85
2019-04-14T01:28:17.967Z,70.21
2019-04-14T01:30:49.035Z,70.38
2019-04-14T01:33:20.565Z,70.64
2019-04-14T01:35:50.990Z,70.36
2019-04-14T01:38:21.198Z,70.59
2019-04-14T01:40:51.046Z,70.71
2019-04-14T01:43:21.360Z,70.63
2019-04-14T01:46:03.980Z,70.58
2019-04-14T01:48:23.504Z,70.60
2019-04-14T01:50:58.391Z,70.67
2019-04-14T01:53:35.767Z,70.74
2019-04-14T01:56:07.999Z,70.75
2019-04-14T01:58:45.262Z,70.90
2019-04-14T02:01:17.064Z,71.06
2019-04-14T02:03:47.751Z,71.06
2019-04-14T02:06:17.967Z,70.84
2019-04-14T02:08:48.025Z,70.89
2019-04-14T02:11:20.457Z,70.75
2019-04-14T02:13:50.827Z,70.78
2019-04-14T02:16:30.289Z,70.76
2019-04-14T02:18:53.547Z,70.75
2019-04-14T02:21:23.723Z,70.34
2019-04-14T02:23:54.014Z,70.06
2019-04-14T02:26:24.080Z,69.92
2019-04-14T02:28:54.904Z,69.69
2019-04-14T02:31:48.495Z,69.64
2019-04-14T02:34:28.403Z,69.60
2019-04-14T02:36:57.114Z,69.65
2019-04-14T02:44:30.609Z,69.62
2019-04-14T02:52:04.764Z,69.54
2019-04-14T02:54:45.247Z,69.52
2019-04-14T02:57:12.553Z,69.48
2019-04-14T02:59:36.475Z,69.50
2019-04-14T03:02:23.233Z,69.55
2019-04-14T03:07:14.400Z,69.49
2019-04-14T03:09:45.445Z,69.55
2019-04-14T03:12:16.894Z,69.56
2019-04-14T03:14:47.861Z,69.47
2019-04-14T03:20:08.510Z,69.48
2019-04-14T03:24:50.275Z,69.55
2019-04-14T03:27:45.877Z,69.61
2019-04-14T03:30:39.296Z,69.58
2019-04-14T03:33:13.673Z,69.59
2019-04-14T03:35:35.741Z,69.58
2019-04-14T03:37:59.432Z,69.66
2019-04-14T03:40:21.668Z,69.57
2019-04-14T03:45:28.130Z,69.70
2019-04-14T03:48:01.490Z,70.28
2019-04-14T03:50:21.549Z,70.81
2019-04-14T03:53:03.255Z,71.55
2019-04-14T03:55:12.756Z,71.91
2019-04-14T03:57:31.206Z,72.23
2019-04-14T04:00:01.305Z,72.88
2019-04-14T04:02:31.535Z,73.04
2019-04-14T04:05:02.217Z,73.15
2019-04-14T04:07:32.274Z,73.17
2019-04-14T04:10:03.638Z,73.17
2019-04-14T04:12:33.604Z,73.29
2019-04-14T04:15:03.968Z,73.18
2019-04-14T04:17:36.280Z,73.37
2019-04-14T04:20:09.022Z,73.08
2019-04-14T04:22:43.435Z,73.27
2019-04-14T04:25:27.269Z,73.33
2019-04-14T04:28:03.969Z,73.47
2019-04-14T04:30:41.261Z,73.30
2019-04-14T04:33:15.530Z,72.95
2019-04-14T04:35:47.897Z,72.39
2019-04-14T04:38:22.420Z,71.91
2019-04-14T04:40:52.893Z,71.71
2019-04-14T04:43:23.330Z,71.49
2019-04-14T04:45:53.806Z,71.35
2019-04-14T04:48:24.185Z,71.24
2019-04-14T04:50:54.215Z,71.18
2019-04-14T04:53:24.488Z,71.04
2019-04-14T04:55:54.639Z,71.01
2019-04-14T04:58:24.392Z,70.90
2019-04-14T05:00:55.893Z,70.79
2019-04-14T05:03:25.469Z,70.79
2019-04-14T05:06:29.440Z,70.74
2019-04-14T05:09:07.929Z,70.71
2019-04-14T05:11:45.258Z,70.38
2019-04-14T05:14:17.307Z,70.35
2019-04-14T05:16:47.001Z,70.19
2019-04-14T05:19:23.614Z,70.25
2019-04-14T05:21:47.966Z,70.31
2019-04-14T05:24:17.932Z,70.15
2019-04-14T05:26:48.472Z,70.08
2019-04-14T05:29:19.014Z,70.03
2019-04-14T05:31:49.047Z,70.04
2019-04-14T05:34:19.440Z,69.90
2019-04-14T05:36:52.063Z,69.83
2019-04-14T05:39:22.076Z,69.65
2019-04-14T05:42:00.333Z,69.52
2019-04-14T05:44:23.876Z,69.68
2019-04-14T05:46:53.567Z,69.63
2019-04-14T05:49:31.506Z,69.37
2019-04-14T05:51:57.508Z,69.28
2019-04-14T05:54:27.507Z,69.06
2019-04-14T05:57:00.107Z,68.85
2019-04-14T05:59:30.791Z,68.75
2019-04-14T06:02:00.425Z,68.58
2019-04-14T06:04:31.012Z,68.42
2019-04-14T06:07:00.743Z,68.55
2019-04-14T06:09:30.533Z,68.29
2019-04-14T06:12:00.637Z,68.15
2019-04-14T06:14:30.460Z,67.93
2019-04-14T06:17:00.073Z,67.74
2019-04-14T06:19:37.180Z,67.27
2019-04-14T06:22:01.052Z,67.21
2019-04-14T06:24:30.664Z,67.09
2019-04-14T06:27:00.292Z,66.96
2019-04-14T06:29:30.155Z,66.82
2019-04-14T06:32:04.148Z,66.70
2019-04-14T06:34:35.472Z,66.60
2019-04-14T06:37:24.576Z,66.46
2019-04-14T06:39:55.841Z,66.35
2019-04-14T06:42:25.460Z,66.02
2019-04-14T06:44:55.123Z,65.99
2019-04-14T06:47:25.624Z,65.68
2019-04-14T06:49:55.811Z,65.75
2019-04-14T06:52:25.500Z,65.65
2019-04-14T06:54:55.884Z,65.75
2019-04-14T06:57:25.580Z,65.89
2019-04-14T06:59:56.136Z,65.91
2019-04-14T07:02:25.746Z,65.79
2019-04-14T07:04:55.369Z,65.69
2019-04-14T07:07:25.390Z,65.70
2019-04-14T07:09:55.013Z,65.72
2019-04-14T07:12:24.631Z,65.64
2019-04-14T07:14:54.565Z,65.48
2019-04-14T07:17:24.191Z,65.45
2019-04-14T07:20:01.855Z,65.19
2019-04-14T07:22:25.423Z,65.19
2019-04-14T07:24:55.103Z,65.09
2019-04-14T07:27:25.196Z,65.03
2019-04-14T07:29:59.206Z,64.89
2019-04-14T07:32:42.497Z,64.87
2019-04-14T07:35:16.732Z,64.78
2019-04-14T07:37:50.951Z,64.83
2019-04-14T07:40:22.215Z,64.79
2019-04-14T07:42:53.541Z,64.68
2019-04-14T07:45:24.799Z,64.86
2019-04-14T07:47:56.252Z,64.99
2019-04-14T07:50:40.675Z,64.94
2019-04-14T07:53:26.959Z,64.75
2019-04-14T07:56:10.226Z,64.59
2019-04-14T07:58:44.532Z,64.73
2019-04-14T08:01:18.560Z,64.66
2019-04-14T08:04:05.691Z,64.40
2019-04-14T08:06:38.267Z,64.31
2019-04-14T08:09:07.593Z,64.17
2019-04-14T08:11:37.777Z,64.06
2019-04-14T08:14:08.301Z,63.74
2019-04-14T08:16:37.917Z,63.63
2019-04-14T08:19:07.812Z,63.63
2019-04-14T08:21:37.575Z,63.66
2019-04-14T08:24:07.627Z,63.51
2019-04-14T08:26:37.245Z,63.48
2019-04-14T08:29:06.901Z,63.32
2019-04-14T08:31:36.569Z,63.38
2019-04-14T08:34:06.151Z,63.40
2019-04-14T08:36:36.484Z,63.47
2019-04-14T08:39:08.060Z,63.29
2019-04-14T08:41:44.168Z,62.91
2019-04-14T08:44:20.877Z,62.86
2019-04-14T08:47:09.218Z,62.54
2019-04-14T08:49:46.087Z,62.24
2019-04-14T08:52:24.221Z,62.51
2019-04-14T08:54:59.469Z,62.71
2019-04-14T08:57:30.796Z,62.64
2019-04-14T09:00:18.311Z,62.73
2019-04-14T09:02:52.731Z,62.79
2019-04-14T09:05:40.341Z,62.75
2019-04-14T09:08:14.439Z,62.75
2019-04-14T09:10:45.705Z,63.06
2019-04-14T09:13:15.692Z,63.10
2019-04-14T09:15:45.507Z,63.16
2019-04-14T09:18:15.118Z,63.11
2019-04-14T09:20:52.109Z,63.18
2019-04-14T09:23:17.502Z,63.03
2019-04-14T09:25:48.901Z,62.95
2019-04-14T09:28:18.608Z,62.88
2019-04-14T09:30:50.110Z,62.82
2019-04-14T09:33:20.094Z,62.93
2019-04-14T09:35:50.103Z,62.69
2019-04-14T09:38:19.754Z,62.68
2019-04-14T09:40:49.938Z,62.44
2019-04-14T09:43:19.553Z,62.27
2019-04-14T09:45:50.746Z,62.27
2019-04-14T09:48:20.354Z,62.17
2019-04-14T09:50:50.044Z,62.11
2019-04-14T09:53:19.755Z,62.05
2019-04-14T09:55:49.450Z,62.02
2019-04-14T09:58:19.065Z,61.87
2019-04-14T10:00:48.778Z,62.06
2019-04-14T10:03:18.429Z,61.91
2019-04-14T10:05:48.015Z,61.45
2019-04-14T10:08:18.150Z,61.55
2019-04-14T10:10:49.147Z,61.42
2019-04-14T10:13:19.139Z,61.45
2019-04-14T10:15:48.794Z,61.52
2019-04-14T10:18:18.428Z,61.25
2019-04-14T10:20:49.765Z,61.53
2019-04-14T10:23:19.562Z,61.93
2019-04-14T10:25:51.471Z,62.06
2019-04-14T10:28:21.343Z,62.08
2019-04-14T10:30:51.746Z,62.30
2019-04-14T10:33:21.684Z,62.31
2019-04-14T10:35:51.335Z,62.19
2019-04-14T10:38:21.338Z,62.24
2019-04-14T10:40:50.968Z,62.10
2019-04-14T10:43:20.592Z,62.18
2019-04-14T10:45:50.296Z,61.85
2019-04-14T10:48:20.049Z,61.74
2019-04-14T10:50:49.933Z,61.08
2019-04-14T10:53:19.583Z,60.12
2019-04-14T10:55:49.199Z,59.26
2019-04-14T10:58:18.819Z,59.10
2019-04-14T11:00:48.846Z,58.26
2019-04-14T11:03:18.452Z,57.78
2019-04-14T11:05:49.708Z,57.37
2019-04-14T11:08:19.364Z,57.05
2019-04-14T11:10:49.490Z,57.04
2019-04-14T11:13:19.103Z,56.93
2019-04-14T11:15:48.756Z,56.48
2019-04-14T11:18:18.368Z,56.21
2019-04-14T11:20:48.724Z,56.11
2019-04-14T11:23:18.410Z,55.87
2019-04-14T11:25:48.415Z,55.42
2019-04-14T11:28:18.030Z,55.29
2019-04-14T11:30:47.760Z,54.44
2019-04-14T11:33:21.973Z,54.22
2019-04-14T11:36:02.485Z,54.16
2019-04-14T11:38:34.014Z,53.77
2019-04-14T11:41:08.073Z,52.99
2019-04-14T11:43:38.091Z,52.96
2019-04-14T11:46:07.817Z,53.66
2019-04-14T11:48:37.512Z,54.50
2019-04-14T11:51:07.155Z,55.57
2019-04-14T11:53:36.788Z,56.19
2019-04-14T11:56:06.470Z,55.73
2019-04-14T11:58:36.366Z,55.13
2019-04-14T12:01:10.646Z,54.86
2019-04-14T12:03:51.158Z,54.05
2019-04-14T12:06:22.547Z,52.83
2019-04-14T12:08:56.531Z,52.49
2019-04-14T12:11:26.239Z,51.96
2019-04-14T12:13:56.747Z,50.81
2019-04-14T12:16:26.376Z,50.58
2019-04-14T12:18:58.450Z,48.07
2019-04-14T12:21:28.078Z,46.73
2019-04-14T12:23:58.043Z,45.40
2019-04-14T12:26:27.686Z,44.64
2019-04-14T12:28:59.176Z,45.37
2019-04-14T12:31:29.186Z,44.01
2019-04-14T12:33:58.868Z,44.44
2019-04-14T12:36:28.867Z,43.63
2019-04-14T12:38:58.525Z,43.60
2019-04-14T12:41:35.677Z,42.75
2019-04-14T12:44:12.678Z,42.54
2019-04-14T12:46:56.034Z,43.37
2019-04-14T12:49:27.306Z,42.25
2019-04-14T12:52:01.626Z,41.40
2019-04-14T12:54:31.299Z,41.30
2019-04-14T12:57:01.112Z,41.00
2019-04-14T12:59:32.858Z,41.13
2019-04-14T13:02:06.646Z,40.86
2019-04-14T13:04:36.289Z,40.16
2019-04-14T13:07:06.175Z,38.43
2019-04-14T13:09:36.501Z,37.69
2019-04-14T13:12:06.363Z,37.65
2019-04-14T13:14:36.005Z,37.15
2019-04-14T13:17:05.742Z,35.72
2019-04-14T13:19:35.358Z,35.22
2019-04-14T13:22:05.061Z,34.72
2019-04-14T13:24:35.555Z,33.65
2019-04-14T13:27:05.647Z,32.75
2019-04-14T13:29:35.274Z,31.80
2019-04-14T13:32:06.180Z,31.15
2019-04-14T13:34:35.809Z,30.45
2019-04-14T13:37:05.640Z,30.27
2019-04-14T13:39:35.278Z,29.52
2019-04-14T13:42:04.975Z,29.32
2019-04-14T13:44:34.768Z,29.25
2019-04-14T13:47:04.577Z,29.79
2019-04-14T13:49:34.500Z,30.79
2019-04-14T13:52:04.289Z,30.14
2019-04-14T13:54:33.958Z,29.13
2019-04-14T13:57:03.640Z,28.35
2019-04-14T13:59:33.327Z,27.79
2019-04-14T14:02:03.289Z,27.86
2019-04-14T14:04:34.356Z,27.80
2019-04-14T14:07:04.652Z,28.49
2019-04-14T14:09:34.444Z,29.37
2019-04-14T14:12:05.736Z,30.29
2019-04-14T14:14:42.733Z,31.82
2019-04-14T14:17:17.040Z,33.17
2019-04-14T14:19:51.353Z,34.13
2019-04-14T14:22:22.609Z,35.05
2019-04-14T14:24:53.948Z,35.25
2019-04-14T14:27:24.010Z,35.55
2019-04-14T14:29:53.624Z,35.78
2019-04-14T14:32:25.161Z,36.34
2019-04-14T14:34:54.820Z,36.40
2019-04-14T14:37:24.515Z,36.87
2019-04-14T14:39:54.133Z,37.27
2019-04-14T14:42:23.815Z,37.42
2019-04-14T14:45:00.804Z,37.11
2019-04-14T14:47:32.097Z,36.67
2019-04-14T14:50:06.075Z,36.55
2019-04-14T14:52:38.376Z,36.85
2019-04-14T14:55:08.408Z,36.35
2019-04-14T14:57:38.055Z,36.09
2019-04-14T15:00:13.210Z,36.39
2019-04-14T15:02:42.838Z,36.65
2019-04-14T15:05:14.166Z,36.61
2019-04-14T15:07:43.879Z,36.45
2019-04-14T15:10:13.443Z,36.10
2019-04-14T15:12:43.119Z,36.56
2019-04-14T15:15:12.941Z,36.63
2019-04-14T15:17:42.703Z,36.78
2019-04-14T15:20:12.290Z,36.55
2019-04-14T15:22:42.328Z,36.37
2019-04-14T15:25:11.948Z,36.31
2019-04-14T15:27:41.648Z,36.31
2019-04-14T15:30:13.506Z,36.19
2019-04-14T15:32:43.397Z,36.48
2019-04-14T15:35:13.123Z,36.65
2019-04-14T15:37:42.859Z,36.20
2019-04-14T15:40:12.690Z,36.36
2019-04-14T15:42:42.747Z,36.71
2019-04-14T15:45:14.129Z,36.90
2019-04-14T15:47:44.687Z,36.91
2019-04-14T15:50:14.374Z,36.79
2019-04-14T15:52:44.058Z,36.67
2019-04-14T15:55:14.786Z,36.87
2019-04-14T15:57:46.187Z,36.85
2019-04-14T16:00:32.520Z,36.93
2019-04-14T16:03:03.788Z,36.65
2019-04-14T16:05:43.856Z,36.60
2019-04-14T16:08:17.877Z,36.74
2019-04-14T16:10:54.838Z,37.00
2019-04-14T16:13:42.711Z,37.83
2019-04-14T16:16:18.927Z,38.43
2019-04-14T16:18:51.781Z,38.94
2019-04-14T16:21:22.187Z,39.34
2019-04-14T16:23:51.814Z,40.16
2019-04-14T16:26:25.856Z,40.46
2019-04-14T16:28:57.177Z,40.64
2019-04-14T16:31:44.643Z,40.77
2019-04-14T16:34:15.978Z,40.94
2019-04-14T16:36:47.234Z,41.36
2019-04-14T16:39:16.940Z,41.65
2019-04-14T16:41:46.862Z,41.82
2019-04-14T16:44:16.500Z,42.35
2019-04-14T16:46:46.139Z,42.52
2019-04-14T16:49:15.848Z,42.85
2019-04-14T16:51:50.077Z,42.93
2019-04-14T16:54:37.773Z,43.04
2019-04-14T16:57:12.083Z,43.07
2019-04-14T16:59:41.897Z,43.26
2019-04-14T17:02:11.596Z,43.56
2019-04-14T17:04:41.303Z,43.81
2019-04-14T17:07:11.732Z,44.09
2019-04-14T17:09:41.509Z,44.21
2019-04-14T17:12:11.185Z,44.47
2019-04-14T17:14:42.527Z,44.58
2019-04-14T17:17:30.187Z,44.83
2019-04-14T17:20:10.215Z,44.92
2019-04-14T17:22:57.657Z,44.98
2019-04-14T17:25:28.945Z,45.13
2019-04-14T17:28:12.555Z,45.36
2019-04-14T17:30:46.794Z,45.74
2019-04-14T17:33:20.941Z,45.97
2019-04-14T17:36:07.503Z,46.06
2019-04-14T17:38:44.793Z,46.17
2019-04-14T17:41:16.122Z,46.33
2019-04-14T17:43:50.091Z,46.61
2019-04-14T17:46:21.437Z,46.85
2019-04-14T17:49:01.637Z,46.98
2019-04-14T17:51:32.947Z,47.16
2019-04-14T17:54:04.297Z,47.26
2019-04-14T17:56:35.615Z,47.45
2019-04-14T17:59:09.660Z,47.55
2019-04-14T18:01:42.521Z,47.60
2019-04-14T18:04:22.793Z,47.79
2019-04-14T18:06:54.155Z,47.89
2019-04-14T18:09:31.385Z,48.20
2019-04-14T18:12:02.647Z,48.29
2019-04-14T18:14:36.305Z,48.36
2019-04-14T18:17:10.080Z,48.48
2019-04-14T18:19:49.974Z,48.65
2019-04-14T18:22:19.749Z,48.73
2019-04-14T18:24:49.455Z,48.83
2019-04-14T18:27:19.069Z,48.93
2019-04-14T18:29:50.372Z,49.04
2019-04-14T18:32:24.489Z,49.01
2019-04-14T18:35:01.733Z,49.05
2019-04-14T18:37:49.241Z,49.30
2019-04-14T18:40:23.253Z,49.50
2019-04-14T18:43:09.803Z,49.77
2019-04-14T18:45:42.890Z,49.98
2019-04-14T18:48:23.061Z,50.10
2019-04-14T18:51:09.286Z,50.28
2019-04-14T18:53:52.488Z,50.33
2019-04-14T18:56:26.506Z,50.34
2019-04-14T18:59:00.692Z,50.31
2019-04-14T19:01:40.841Z,50.49
2019-04-14T19:04:10.451Z,50.50
2019-04-14T19:06:40.334Z,50.70
2019-04-14T19:09:10.876Z,50.73
2019-04-14T19:11:59.149Z,50.86
2019-04-14T19:14:33.228Z,50.96
2019-04-14T19:17:06.917Z,50.98
2019-04-14T19:19:38.175Z,51.05
2019-04-14T19:22:07.871Z,51.40
2019-04-14T19:24:37.483Z,51.56
2019-04-14T19:27:07.132Z,51.78
2019-04-14T19:29:36.937Z,51.79
2019-04-14T19:32:06.555Z,51.79
2019-04-14T19:34:36.169Z,51.93
2019-04-14T19:37:05.846Z,52.02
2019-04-14T19:39:35.449Z,52.12
2019-04-14T19:42:05.125Z,52.44
2019-04-14T19:44:34.776Z,52.51
2019-04-14T19:47:04.387Z,52.59
2019-04-14T19:49:34.012Z,52.83
2019-04-14T19:52:03.763Z,52.92
2019-04-14T19:54:33.952Z,53.18
2019-04-14T19:57:03.629Z,53.27
2019-04-14T19:59:33.329Z,53.27
2019-04-14T20:02:03.531Z,53.68
2019-04-14T20:04:33.227Z,53.77
2019-04-14T20:07:02.910Z,53.89
2019-04-14T20:09:32.562Z,54.17
2019-04-14T20:12:03.085Z,54.38
2019-04-14T20:14:32.765Z,54.32
2019-04-14T20:17:07.036Z,54.48
2019-04-14T20:19:53.324Z,54.48
2019-04-14T20:22:40.780Z,54.69
2019-04-14T20:25:33.579Z,54.91
2019-04-14T20:28:00.061Z,55.01
2019-04-14T20:30:33.832Z,54.98
2019-04-14T20:33:03.474Z,55.35
2019-04-14T20:35:33.811Z,55.60
2019-04-14T20:38:03.814Z,55.68
2019-04-14T20:40:33.497Z,55.69
2019-04-14T20:43:03.108Z,55.54
2019-04-14T20:45:32.797Z,55.62
2019-04-14T20:48:02.428Z,55.80
2019-04-14T20:50:32.046Z,55.96
2019-04-14T20:53:01.694Z,55.87
2019-04-14T20:55:31.304Z,56.09
2019-04-14T20:58:00.924Z,56.33
2019-04-14T21:00:30.591Z,56.58
2019-04-14T21:03:01.868Z,57.05
2019-04-14T21:05:51.479Z,57.53
2019-04-14T21:08:22.418Z,57.29
2019-04-14T21:10:53.690Z,57.32
2019-04-14T21:13:25.900Z,57.32
2019-04-14T21:16:12.953Z,57.26
2019-04-14T21:18:44.698Z,57.30
2019-04-14T21:21:18.934Z,57.32
2019-04-14T21:24:06.707Z,58.26
2019-04-14T21:26:47.129Z,58.74
2019-04-14T21:29:34.252Z,59.53
2019-04-14T21:32:05.546Z,59.74
2019-04-14T21:34:48.824Z,59.81
2019-04-14T21:37:36.249Z,60.19
2019-04-14T21:40:12.091Z,60.02
2019-04-14T21:42:42.797Z,59.60
2019-04-14T21:45:12.515Z,59.21
2019-04-14T21:47:42.424Z,58.86
2019-04-14T21:50:12.188Z,59.08
2019-04-14T21:52:43.458Z,58.92
2019-04-14T21:55:13.580Z,58.82
2019-04-14T21:57:44.862Z,58.52
2019-04-14T22:00:20.638Z,58.58
2019-04-14T22:03:03.686Z,58.46
2019-04-14T22:05:34.978Z,58.95
2019-04-14T22:08:09.021Z,59.26
2019-04-14T22:10:43.033Z,59.93
2019-04-14T22:13:12.804Z,60.70
2019-04-14T22:15:42.495Z,60.74
2019-04-14T22:18:12.230Z,61.26
2019-04-14T22:20:41.839Z,62.41
2019-04-14T22:23:15.667Z,62.18
2019-04-14T22:25:45.928Z,61.96
2019-04-14T22:28:15.597Z,61.77
2019-04-14T22:30:45.887Z,61.54
2019-04-14T22:33:17.320Z,61.13
2019-04-14T22:35:47.223Z,61.00
2019-04-14T22:38:17.391Z,61.15
2019-04-14T22:40:47.079Z,61.72
2019-04-14T22:43:16.708Z,61.74
2019-04-14T22:45:46.395Z,61.75
2019-04-14T22:48:16.049Z,61.58
2019-04-14T22:50:45.705Z,61.57
2019-04-14T22:53:15.399Z,61.51
2019-04-14T22:55:45.927Z,61.67
2019-04-14T22:58:15.574Z,61.81
2019-04-14T23:00:46.882Z,61.74
2019-04-14T23:03:18.228Z,61.83
2019-04-14T23:05:52.149Z,61.90
2019-04-14T23:08:39.792Z,62.05
2019-04-14T23:11:11.119Z,62.48
2019-04-14T23:13:54.422Z,62.58
2019-04-14T23:16:37.649Z,62.70
2019-04-14T23:19:18.218Z,62.57
2019-04-14T23:21:58.455Z,62.43
2019-04-14T23:24:29.755Z,62.92
2019-04-14T23:26:59.379Z,62.68
2019-04-14T23:29:29.009Z,63.06
2019-04-14T23:31:58.739Z,62.93
2019-04-14T23:34:28.369Z,63.51
2019-04-14T23:36:58.000Z,64.08
2019-04-14T23:39:27.691Z,64.21
2019-04-14T23:41:57.385Z,64.38
2019-04-14T23:44:27.776Z,64.69
2019-04-14T23:46:57.794Z,64.60
2019-04-14T23:49:27.889Z,64.26
2019-04-14T23:51:57.584Z,64.03
2019-04-14T23:54:27.267Z,63.67
2019-04-14T23:57:05.427Z,63.52
2019-04-14T23:59:29.648Z,63.38
